createdAt,value
2019-03-09T00:01:18.147Z,18.12
2019-03-09T00:06:22.394Z,20.75
2019-03-09T00:11:26.810Z,22.00
2019-03-09T00:16:35.523Z,22.00
2019-03-09T00:21:44.077Z,23.00
2019-03-09T00:26:51.210Z,24.00
2019-03-09T00:31:59.163Z,25.78
2019-03-09T00:37:06.127Z,22.37
2019-03-09T00:42:13.189Z,23.12
2019-03-09T00:47:19.991Z,21.00
2019-03-09T00:52:29.307Z,22.00
2019-03-09T00:57:38.722Z,23.00
2019-03-09T01:02:48.337Z,20.11
2019-03-09T01:07:56.403Z,21.89
2019-03-09T01:13:05.482Z,20.00
2019-03-09T01:18:08.987Z,20.00
2019-03-09T01:23:13.690Z,19.00
2019-03-09T01:28:19.943Z,20.00
2019-03-09T01:33:27.131Z,18.00
2019-03-09T01:38:31.783Z,22.00
2019-03-09T01:43:36.252Z,19.50
2019-03-09T01:48:44.247Z,20.00
2019-03-09T01:53:53.975Z,19.37
2019-03-09T01:59:01.366Z,22.00
2019-03-09T02:04:10.362Z,21.62
2019-03-09T02:09:17.669Z,22.87
2019-03-09T02:14:26.738Z,22.00
2019-03-09T02:19:35.579Z,22.00
2019-03-09T02:24:42.906Z,20.00
2019-03-09T02:29:50.010Z,17.75
2019-03-09T02:34:54.619Z,20.00
2019-03-09T02:39:58.321Z,21.25
2019-03-09T02:45:15.383Z,20.25
2019-03-09T02:50:26.111Z,18.25
2019-03-09T02:55:33.303Z,19.62
2019-03-09T03:00:36.963Z,17.67
2019-03-09T03:05:45.696Z,19.25
2019-03-09T03:10:50.989Z,15.00
2019-03-09T03:15:57.004Z,13.00
2019-03-09T03:21:02.251Z,14.86
2019-03-09T03:26:05.992Z,19.00
2019-03-09T03:31:14.065Z,20.75
2019-03-09T03:36:20.752Z,18.44
2019-03-09T03:41:24.986Z,16.33
2019-03-09T03:46:29.220Z,27.50
2019-03-09T03:51:39.440Z,17.64
2019-03-09T03:56:47.338Z,18.62
2019-03-09T04:01:54.195Z,15.00
2019-03-09T04:06:58.172Z,13.50
2019-03-09T04:12:01.579Z,15.33
2019-03-09T04:17:07.400Z,17.00
2019-03-09T04:22:13.175Z,15.00
2019-03-09T04:27:19.680Z,17.75
2019-03-09T04:32:25.390Z,13.14
2019-03-09T04:37:28.947Z,16.25
2019-03-09T04:42:32.477Z,11.00
2019-03-09T04:47:36.038Z,11.75
2019-03-09T04:52:40.624Z,9.43
2019-03-09T04:57:46.771Z,10.00
2019-03-09T05:02:53.174Z,10.29
2019-03-09T05:07:58.585Z,9.50
2019-03-09T05:13:05.617Z,10.00
2019-03-09T05:18:11.182Z,10.57
2019-03-09T05:23:18.202Z,9.56
2019-03-09T05:28:22.875Z,9.00
2019-03-09T05:33:29.319Z,10.43
2019-03-09T05:38:35.547Z,9.00
2019-03-09T05:43:41.764Z,8.71
2019-03-09T05:48:47.936Z,11.00
2019-03-09T05:53:54.085Z,9.00
2019-03-09T05:59:00.432Z,10.00
2019-03-09T06:04:04.404Z,10.00
2019-03-09T06:09:09.797Z,10.14
2019-03-09T06:14:16.251Z,10.57
2019-03-09T06:19:20.720Z,7.00
2019-03-09T06:24:27.410Z,9.00
2019-03-09T06:29:33.257Z,8.67
2019-03-09T06:34:37.086Z,7.50
2019-03-09T06:39:41.967Z,8.00
2019-03-09T06:44:45.307Z,7.40
2019-03-09T06:49:50.394Z,10.14
2019-03-09T06:54:53.970Z,7.00
2019-03-09T07:00:02.628Z,6.50
2019-03-09T07:05:06.702Z,7.17
2019-03-09T07:10:10.447Z,7.67
2019-03-09T07:15:18.273Z,6.00
2019-03-09T07:20:22.087Z,6.00
2019-03-09T07:25:29.297Z,6.22
2019-03-09T07:30:33.222Z,6.00
2019-03-09T07:35:36.754Z,6.00
2019-03-09T07:40:44.333Z,7.83
2019-03-09T07:45:48.324Z,6.00
2019-03-09T07:50:55.615Z,6.33
2019-03-09T07:56:00.491Z,6.00
2019-03-09T08:01:03.700Z,6.67
2019-03-09T08:06:10.892Z,5.00
2019-03-09T08:11:19.177Z,6.30
2019-03-09T08:16:22.946Z,5.00
2019-03-09T08:21:30.156Z,3.33
2019-03-09T08:26:34.990Z,5.00
2019-03-09T08:31:39.733Z,6.50
2019-03-09T08:36:45.542Z,5.40
2019-03-09T08:41:49.482Z,6.00
2019-03-09T08:46:55.960Z,5.00
2019-03-09T08:52:00.814Z,4.00
2019-03-09T08:57:05.705Z,6.00
2019-03-09T09:02:12.466Z,6.50
2019-03-09T09:07:16.758Z,2.00
2019-03-09T09:12:25.215Z,12.00
2019-03-09T09:17:30.986Z,7.00
2019-03-09T09:22:34.460Z,8.67
2019-03-09T09:27:40.238Z,10.00
2019-03-09T09:32:48.531Z,5.50
2019-03-09T09:37:53.460Z,4.33
2019-03-09T09:42:56.871Z,5.00
2019-03-09T09:48:00.095Z,5.00
2019-03-09T09:53:03.638Z,7.00
2019-03-09T09:58:06.954Z,5.33
2019-03-09T10:03:10.259Z,3.00
2019-03-09T10:08:13.532Z,4.00
2019-03-09T10:13:18.433Z,5.00
2019-03-09T10:18:21.642Z,4.40
2019-03-09T10:23:24.918Z,3.33
2019-03-09T10:28:28.856Z,5.20
2019-03-09T10:33:32.973Z,5.25
2019-03-09T10:38:36.314Z,4.00
2019-03-09T10:43:39.538Z,4.67
2019-03-09T10:48:42.842Z,4.00
2019-03-09T10:53:50.232Z,5.00
2019-03-09T10:58:58.363Z,3.70
2019-03-09T11:04:03.239Z,4.33
2019-03-09T11:09:08.030Z,5.50
2019-03-09T11:14:11.990Z,6.00
2019-03-09T11:19:15.830Z,4.00
2019-03-09T11:24:19.507Z,5.33
2019-03-09T11:29:22.498Z,4.40
2019-03-09T11:34:28.183Z,5.40
2019-03-09T11:39:32.770Z,4.00
2019-03-09T11:44:36.634Z,4.00
2019-03-09T11:49:39.790Z,6.33
2019-03-09T11:54:42.984Z,4.00
2019-03-09T11:59:46.175Z,6.33
2019-03-09T12:04:52.664Z,2.80
2019-03-09T12:10:00.590Z,3.00
2019-03-09T12:15:06.131Z,3.40
2019-03-09T12:20:16.186Z,6.83
2019-03-09T12:25:19.469Z,7.67
2019-03-09T12:30:26.407Z,11.29
2019-03-09T12:35:29.934Z,6.00
2019-03-09T12:40:33.530Z,5.00
2019-03-09T12:45:36.976Z,8.33
2019-03-09T12:50:43.838Z,7.83
2019-03-09T12:55:47.374Z,7.17
2019-03-09T13:00:55.134Z,6.50
2019-03-09T13:05:58.711Z,7.17
2019-03-09T13:11:02.886Z,6.33
2019-03-09T13:16:10.660Z,6.00
2019-03-09T13:21:14.738Z,7.60
2019-03-09T13:26:18.155Z,7.40
2019-03-09T13:31:25.679Z,7.33
2019-03-09T13:36:30.598Z,6.00
2019-03-09T13:41:34.748Z,8.00
2019-03-09T13:46:40.859Z,8.40
2019-03-09T13:51:44.991Z,8.83
2019-03-09T13:56:53.360Z,7.40
2019-03-09T14:01:56.970Z,6.50
2019-03-09T14:07:00.379Z,6.00
2019-03-09T14:12:03.666Z,7.00
2019-03-09T14:17:11.916Z,9.10
2019-03-09T14:22:15.223Z,7.00
2019-03-09T14:27:22.776Z,7.22
2019-03-09T14:32:31.194Z,5.20
2019-03-09T14:37:36.239Z,8.00
2019-03-09T14:42:41.286Z,7.00
2019-03-09T14:47:45.634Z,8.00
2019-03-09T14:52:51.408Z,9.00
2019-03-09T14:57:59.791Z,10.00
2019-03-09T15:03:07.753Z,25.56
2019-03-09T15:08:12.298Z,11.50
2019-03-09T15:13:17.073Z,10.43
2019-03-09T15:18:22.446Z,15.00
2019-03-09T15:23:27.171Z,11.57
2019-03-09T15:28:35.313Z,26.64
2019-03-09T15:33:38.646Z,9.00
2019-03-09T15:38:46.287Z,7.50
2019-03-09T15:43:49.847Z,13.00
2019-03-09T15:48:55.923Z,23.62
2019-03-09T15:54:01.237Z,16.00
2019-03-09T15:59:07.307Z,16.57
2019-03-09T16:04:15.922Z,14.10
2019-03-09T16:09:19.731Z,11.50
2019-03-09T16:14:25.210Z,17.71
2019-03-09T16:19:28.998Z,12.00
2019-03-09T16:24:34.525Z,10.43
2019-03-09T16:29:40.466Z,10.71
2019-03-09T16:34:45.710Z,10.17
2019-03-09T16:39:51.867Z,14.14
2019-03-09T16:44:55.374Z,16.50
2019-03-09T16:50:01.699Z,12.00
2019-03-09T16:55:06.364Z,20.00
2019-03-09T17:00:15.798Z,20.50
2019-03-09T17:05:19.150Z,7.40
2019-03-09T17:10:26.204Z,13.00
2019-03-09T17:15:29.854Z,21.75
2019-03-09T17:20:36.664Z,14.00
2019-03-09T17:25:42.723Z,9.00
2019-03-09T17:30:47.778Z,11.83
2019-03-09T17:35:53.951Z,22.29
2019-03-09T17:41:00.129Z,10.57
2019-03-09T17:46:05.519Z,9.17
2019-03-09T17:51:09.906Z,16.00
2019-03-09T17:56:15.458Z,23.00
2019-03-09T18:01:20.237Z,31.14
2019-03-09T18:06:29.132Z,18.14
2019-03-09T18:11:33.246Z,6.67
2019-03-09T18:16:37.139Z,11.00
2019-03-09T18:21:54.540Z,14.36
2019-03-09T18:27:08.255Z,16.60
2019-03-09T18:32:18.240Z,11.14
2019-03-09T18:37:23.727Z,9.00
2019-03-09T18:43:25.510Z,15.90
2019-03-09T18:48:32.842Z,16.29
2019-03-09T18:54:16.952Z,18.83
2019-03-09T18:59:32.783Z,21.10
2019-03-09T19:04:36.331Z,9.00
2019-03-09T19:09:45.644Z,13.62
2019-03-09T19:14:54.104Z,12.37
2019-03-09T19:19:59.790Z,13.29
2019-03-09T19:25:03.895Z,13.67
2019-03-09T19:30:11.069Z,15.00
2019-03-09T19:35:16.578Z,15.29
2019-03-09T19:40:23.244Z,11.00
2019-03-09T19:45:26.711Z,15.00
2019-03-09T19:50:33.811Z,9.33
2019-03-09T19:55:41.764Z,17.50
2019-03-09T20:00:47.315Z,18.60
2019-03-09T20:05:51.498Z,11.40
2019-03-09T20:10:56.888Z,8.00
2019-03-09T20:15:59.849Z,18.50
2019-03-09T20:21:07.414Z,11.14
2019-03-09T20:26:15.050Z,16.86
2019-03-09T20:31:20.819Z,9.17
2019-03-09T20:36:24.731Z,11.00
2019-03-09T20:41:29.982Z,16.14
2019-03-09T20:46:41.914Z,10.63
2019-03-09T20:51:45.059Z,13.00
2019-03-09T20:56:53.478Z,12.57
2019-03-09T21:01:57.101Z,14.25
2019-03-09T21:07:01.490Z,13.00
2019-03-09T21:12:06.126Z,12.00
2019-03-09T21:17:13.191Z,13.00
2019-03-09T21:22:18.958Z,22.87
2019-03-09T21:27:24.386Z,19.14
2019-03-09T21:32:28.404Z,11.17
2019-03-09T21:37:41.116Z,8.00
2019-03-09T21:42:48.654Z,18.50
2019-03-09T21:47:53.995Z,12.50
2019-03-09T21:53:02.567Z,5.50
2019-03-09T21:58:06.760Z,9.00
2019-03-09T22:03:11.635Z,11.29
2019-03-09T22:08:19.178Z,15.75
2019-03-09T22:13:25.375Z,9.57
2019-03-09T22:18:34.074Z,14.00
2019-03-09T22:23:44.294Z,8.67
2019-03-09T22:28:51.362Z,14.20
2019-03-09T22:34:06.730Z,14.56
2019-03-09T22:39:13.209Z,26.56
2019-03-09T22:44:26.199Z,11.08
2019-03-09T22:49:38.249Z,17.00
2019-03-09T22:54:40.460Z,8.33
2019-03-09T22:59:45.007Z,12.00
2019-03-09T23:04:48.679Z,30.67
2019-03-09T23:10:04.020Z,14.61
2019-03-09T23:15:16.250Z,6.45
2019-03-09T23:20:24.542Z,13.00
2019-03-09T23:25:33.354Z,11.50
2019-03-09T23:30:38.311Z,4.33
2019-03-09T23:35:43.135Z,19.40
2019-03-09T23:40:52.643Z,11.00
2019-03-09T23:46:03.192Z,8.11
2019-03-09T23:51:12.079Z,26.56
2019-03-09T23:56:17.480Z,8.00
